createdAt,value
2018-07-24T00:00:00.300Z,25.41
2018-07-24T00:01:00.354Z,25.31
2018-07-24T00:02:00.335Z,25.26
2018-07-24T00:03:00.379Z,25.29
2018-07-24T00:04:00.347Z,25.3
2018-07-24T00:05:00.358Z,25.36
2018-07-24T00:06:00.338Z,25.33
2018-07-24T00:07:00.306Z,25.4
2018-07-24T00:08:00.339Z,25.33
2018-07-24T00:09:00.260Z,25.37
2018-07-24T00:10:00.345Z,25.39
2018-07-24T00:11:00.405Z,25.31
2018-07-24T00:14:07.410Z,25.33
2018-07-24T00:14:20.147Z,25.3
2018-07-24T00:15:20.181Z,25.37
2018-07-24T00:16:20.172Z,25.26
2018-07-24T00:17:20.242Z,25.34
2018-07-24T00:18:20.122Z,25.36
2018-07-24T00:19:20.129Z,25.26
2018-07-24T00:20:20.134Z,25.49
2018-07-24T00:21:20.163Z,25.26
2018-07-24T00:22:20.110Z,25.29
2018-07-24T00:23:20.168Z,25.36
2018-07-24T00:24:20.220Z,25.29
2018-07-24T00:25:20.126Z,25.36
2018-07-24T00:26:20.151Z,25.24
2018-07-24T00:27:20.142Z,25.36
2018-07-24T00:28:20.230Z,25.29
2018-07-24T00:29:20.193Z,25.36
2018-07-24T00:30:20.239Z,25.34
2018-07-24T00:31:20.125Z,25.37
2018-07-24T00:32:20.289Z,25.26
2018-07-24T00:33:20.158Z,25.3
2018-07-24T00:34:20.140Z,25.3
2018-07-24T00:35:20.168Z,25.37
2018-07-24T00:36:20.095Z,25.34
2018-07-24T00:37:20.077Z,25.37
2018-07-24T00:38:20.216Z,25.4
2018-07-24T00:39:20.237Z,25.36
2018-07-24T00:40:20.206Z,25.34
2018-07-24T00:41:20.153Z,25.4
2018-07-24T00:42:20.137Z,25.33
2018-07-24T00:43:20.092Z,25.34
2018-07-24T00:44:20.233Z,25.33
2018-07-24T00:45:20.174Z,25.25
2018-07-24T00:46:20.147Z,25.34
2018-07-24T00:47:20.270Z,25.3
2018-07-24T00:48:20.124Z,25.39
2018-07-24T00:49:20.223Z,25.39
2018-07-24T00:50:20.163Z,25.37
2018-07-24T00:51:20.219Z,25.31
2018-07-24T00:52:20.203Z,25.26
2018-07-24T00:53:20.210Z,25.34
2018-07-24T00:54:20.398Z,25.3
2018-07-24T00:55:20.285Z,25.39
2018-07-24T00:56:20.204Z,25.39
2018-07-24T00:57:20.204Z,25.36
2018-07-24T00:58:20.147Z,25.34
2018-07-24T00:59:20.167Z,25.24
2018-07-24T01:00:20.341Z,25.36
2018-07-24T01:01:54.991Z,25.31
2018-07-24T01:02:20.551Z,25.31
2018-07-24T01:03:20.186Z,25.29
2018-07-24T01:04:20.216Z,25.36
2018-07-24T01:05:20.206Z,25.26
2018-07-24T01:06:20.307Z,25.31
2018-07-24T01:07:20.135Z,25.3
2018-07-24T01:08:20.146Z,25.33
2018-07-24T01:09:20.232Z,25.34
2018-07-24T01:10:20.254Z,25.37
2018-07-24T01:11:20.249Z,25.34
2018-07-24T01:12:19.981Z,25.36
2018-07-24T01:13:20.081Z,25.29
2018-07-24T01:14:20.025Z,25.29
2018-07-24T01:15:19.985Z,25.41
2018-07-24T01:16:20.055Z,25.36
2018-07-24T01:17:20.025Z,25.29
2018-07-24T01:18:19.983Z,25.31
2018-07-24T01:19:20.080Z,25.31
2018-07-24T01:20:20.157Z,25.3
2018-07-24T01:21:20.058Z,25.34
2018-07-24T01:22:20.026Z,25.31
2018-07-24T01:23:19.968Z,25.26
2018-07-24T01:24:19.992Z,25.33
2018-07-24T01:25:19.977Z,25.31
2018-07-24T01:26:20.397Z,25.33
2018-07-24T01:27:20.047Z,25.26
2018-07-24T01:28:20.082Z,25.3
2018-07-24T01:29:20.174Z,25.26
2018-07-24T01:30:19.994Z,25.36
2018-07-24T01:31:20.020Z,25.37
2018-07-24T01:32:20.076Z,25.25
2018-07-24T01:33:20.119Z,25.26
2018-07-24T01:34:20.152Z,25.31
2018-07-24T01:35:20.145Z,25.29
2018-07-24T01:36:21.228Z,25.3
2018-07-24T01:37:20.203Z,25.26
2018-07-24T01:38:20.358Z,25.3
2018-07-24T01:39:20.209Z,25.26
2018-07-24T01:40:20.150Z,25.29
2018-07-24T01:41:20.104Z,25.29
2018-07-24T01:42:20.022Z,25.3
2018-07-24T01:43:20.175Z,25.25
2018-07-24T01:44:20.174Z,25.29
2018-07-24T01:45:20.246Z,25.31
2018-07-24T01:46:20.184Z,25.25
2018-07-24T01:47:20.088Z,25.24
2018-07-24T01:48:20.064Z,25.29
2018-07-24T01:49:20.068Z,25.31
2018-07-24T01:50:20.451Z,25.3
2018-07-24T01:51:20.147Z,25.26
2018-07-24T01:52:20.204Z,25.3
2018-07-24T01:53:20.060Z,25.34
2018-07-24T01:54:20.084Z,25.31
2018-07-24T01:55:20.118Z,25.34
2018-07-24T01:56:20.184Z,25.19
2018-07-24T01:57:20.040Z,25.34
2018-07-24T01:58:20.061Z,25.31
2018-07-24T01:59:20.201Z,25.26
2018-07-24T02:00:20.077Z,25.3
2018-07-24T02:01:20.128Z,25.29
2018-07-24T02:02:20.132Z,25.31
2018-07-24T02:03:20.240Z,25.26
2018-07-24T02:04:20.093Z,25.26
2018-07-24T02:05:20.048Z,25.29
2018-07-24T02:06:20.122Z,25.18
2018-07-24T02:07:20.242Z,25.3
2018-07-24T02:08:20.172Z,25.25
2018-07-24T02:09:20.139Z,25.3
2018-07-24T02:10:20.107Z,25.26
2018-07-24T02:11:20.145Z,25.34
2018-07-24T02:12:20.253Z,25.3
2018-07-24T02:13:20.297Z,25.36
2018-07-24T02:14:20.251Z,25.31
2018-07-24T02:15:20.036Z,25.15
2018-07-24T02:16:20.119Z,25.3
2018-07-24T02:17:20.263Z,25.26
2018-07-24T02:18:20.105Z,25.25
2018-07-24T02:19:20.377Z,25.29
2018-07-24T02:20:20.116Z,25.33
2018-07-24T02:21:20.246Z,25.3
2018-07-24T02:22:20.089Z,25.24
2018-07-24T02:23:20.161Z,25.26
2018-07-24T02:24:20.176Z,25.16
2018-07-24T02:25:20.134Z,25.22
2018-07-24T02:26:20.099Z,25.25
2018-07-24T02:27:20.230Z,25.34
2018-07-24T02:28:20.135Z,25.29
2018-07-24T02:29:20.173Z,25.34
2018-07-24T02:30:20.275Z,25.25
2018-07-24T02:31:20.272Z,25.33
2018-07-24T02:32:20.860Z,25.25
2018-07-24T02:33:20.161Z,25.3
2018-07-24T02:34:20.274Z,25.26
2018-07-24T02:35:20.242Z,25.25
2018-07-24T02:36:20.297Z,25.24
2018-07-24T02:37:20.324Z,25.21
2018-07-24T02:38:20.179Z,25.24
2018-07-24T02:39:20.193Z,25.3
2018-07-24T02:40:20.198Z,25.26
2018-07-24T02:41:20.213Z,25.26
2018-07-24T02:42:20.190Z,25.25
2018-07-24T02:43:20.232Z,25.22
2018-07-24T02:44:20.189Z,25.29
2018-07-24T02:45:20.261Z,25.24
2018-07-24T02:46:20.131Z,25.29
2018-07-24T02:47:20.253Z,25.24
2018-07-24T02:48:20.224Z,25.3
2018-07-24T02:49:20.127Z,25.33
2018-07-24T02:50:20.211Z,25.24
2018-07-24T02:51:20.345Z,25.26
2018-07-24T02:52:20.241Z,25.26
2018-07-24T02:53:20.218Z,25.3
2018-07-24T02:54:20.251Z,25.24
2018-07-24T02:55:20.240Z,25.29
2018-07-24T02:56:20.162Z,25.29
2018-07-24T02:57:20.150Z,25.26
2018-07-24T02:58:20.209Z,25.29
2018-07-24T02:59:20.199Z,25.33
2018-07-24T03:00:20.191Z,25.3
2018-07-24T03:01:20.245Z,25.31
2018-07-24T03:02:20.209Z,25.24
2018-07-24T03:03:20.221Z,25.25
2018-07-24T03:04:20.235Z,25.29
2018-07-24T03:05:21.165Z,25.25
2018-07-24T03:06:20.280Z,25.26
2018-07-24T03:07:20.246Z,25.25
2018-07-24T03:08:20.314Z,25.29
2018-07-24T03:09:20.158Z,25.29
2018-07-24T03:10:20.333Z,25.24
2018-07-24T03:11:20.348Z,25.18
2018-07-24T03:12:20.377Z,25.25
2018-07-24T03:13:20.238Z,25.24
2018-07-24T03:14:40.094Z,25.21
2018-07-24T03:15:20.227Z,25.25
2018-07-24T03:16:20.436Z,25.24
2018-07-24T03:17:20.212Z,25.22
2018-07-24T03:18:20.214Z,25.22
2018-07-24T03:19:20.346Z,25.24
2018-07-24T03:20:20.390Z,25.18
2018-07-24T03:21:20.222Z,25.22
2018-07-24T03:22:20.234Z,25.25
2018-07-24T03:23:20.222Z,25.22
2018-07-24T03:24:20.285Z,25.29
2018-07-24T03:25:20.423Z,25.3
2018-07-24T03:26:20.409Z,25.16
2018-07-24T03:27:20.233Z,25.18
2018-07-24T03:28:20.350Z,25.22
2018-07-24T03:29:20.278Z,25.24
2018-07-24T03:30:20.265Z,25.15
2018-07-24T03:31:20.286Z,25.21
2018-07-24T03:32:20.421Z,25.25
2018-07-24T03:33:20.321Z,25.16
2018-07-24T03:34:20.396Z,25.12
2018-07-24T03:35:20.337Z,25.19
2018-07-24T03:36:20.331Z,25.19
2018-07-24T03:37:20.511Z,25.24
2018-07-24T03:38:20.403Z,25.18
2018-07-24T03:39:20.342Z,25.19
2018-07-24T03:40:20.336Z,25.24
2018-07-24T03:41:20.269Z,25.19
2018-07-24T03:42:20.313Z,25.21
2018-07-24T03:43:20.613Z,25.26
2018-07-24T03:44:20.311Z,25.21
2018-07-24T03:45:20.315Z,25.15
2018-07-24T03:46:20.295Z,25.16
2018-07-24T03:47:20.398Z,25.22
2018-07-24T03:48:20.283Z,25.18
2018-07-24T03:49:20.302Z,25.16
2018-07-24T03:50:20.377Z,25.19
2018-07-24T03:51:20.299Z,25.15
2018-07-24T03:52:20.430Z,25.26
2018-07-24T03:53:20.371Z,25.19
2018-07-24T03:54:20.277Z,25.22
2018-07-24T03:55:20.483Z,25.18
2018-07-24T03:56:20.384Z,25.19
2018-07-24T03:57:20.329Z,25.25
2018-07-24T03:58:20.325Z,25.19
2018-07-24T03:59:20.318Z,25.18
2018-07-24T04:00:20.420Z,25.19
2018-07-24T04:01:20.434Z,25.16
2018-07-24T04:02:20.547Z,25.18
2018-07-24T04:03:21.051Z,25.12
2018-07-24T04:04:20.368Z,25.24
2018-07-24T04:05:20.450Z,25.22
2018-07-24T04:06:20.320Z,25.21
2018-07-24T04:07:20.408Z,25.16
2018-07-24T04:08:20.367Z,25.18
2018-07-24T04:09:20.342Z,25.18
2018-07-24T04:10:20.378Z,25.16
2018-07-24T04:11:20.484Z,25.15
2018-07-24T04:12:20.594Z,25.21
2018-07-24T04:13:20.328Z,25.21
2018-07-24T04:14:20.390Z,25.22
2018-07-24T04:15:20.356Z,25.24
2018-07-24T04:16:20.362Z,25.18
2018-07-24T04:17:20.351Z,25.21
2018-07-24T04:19:40.300Z,25.22
2018-07-24T04:20:40.320Z,25.29
2018-07-24T04:21:40.277Z,25.15
2018-07-24T04:22:40.313Z,25.18
2018-07-24T04:23:40.266Z,25.22
2018-07-24T04:24:40.231Z,25.18
2018-07-24T04:25:40.369Z,25.21
2018-07-24T04:26:40.290Z,25.21
2018-07-24T04:27:40.232Z,25.16
2018-07-24T04:28:40.300Z,25.24
2018-07-24T04:29:40.236Z,25.24
2018-07-24T04:30:40.365Z,25.15
2018-07-24T04:31:40.354Z,25.16
2018-07-24T04:32:40.360Z,25.21
2018-07-24T04:33:40.365Z,25.21
2018-07-24T04:34:40.330Z,25.15
2018-07-24T04:35:40.327Z,25.21
2018-07-24T04:36:40.280Z,25.15
2018-07-24T04:37:40.315Z,25.16
2018-07-24T04:38:40.254Z,25.21
2018-07-24T04:39:40.310Z,25.22
2018-07-24T04:40:40.321Z,25.14
2018-07-24T04:41:40.279Z,25.19
2018-07-24T04:42:40.398Z,25.18
2018-07-24T04:43:40.381Z,25.15
2018-07-24T04:44:40.337Z,25.15
2018-07-24T04:45:40.316Z,25.18
2018-07-24T04:46:40.388Z,25.22
2018-07-24T04:47:40.352Z,25.18
2018-07-24T04:48:40.391Z,25.18
2018-07-24T04:49:40.360Z,25.22
2018-07-24T04:50:40.289Z,25.24
2018-07-24T04:51:40.411Z,25.21
2018-07-24T04:56:11.492Z,25.21
2018-07-24T04:57:11.443Z,25.25
2018-07-24T04:58:11.457Z,25.16
2018-07-24T04:59:11.449Z,25.12
2018-07-24T05:00:11.381Z,25.15
2018-07-24T05:01:11.424Z,25.24
2018-07-24T05:02:11.458Z,25.26
2018-07-24T05:03:11.634Z,25.24
2018-07-24T05:04:11.549Z,25.16
2018-07-24T05:05:11.586Z,25.16
2018-07-24T05:06:11.598Z,25.16
2018-07-24T05:07:11.465Z,25.21
2018-07-24T05:08:11.503Z,25.21
2018-07-24T05:09:11.652Z,25.24
2018-07-24T05:10:11.501Z,25.22
2018-07-24T05:11:11.490Z,25.18
2018-07-24T05:12:11.468Z,25.16
2018-07-24T05:13:11.602Z,25.11
2018-07-24T05:14:11.503Z,25.19
2018-07-24T05:15:11.509Z,25.24
2018-07-24T05:16:11.527Z,25.21
2018-07-24T05:17:11.459Z,25.19
2018-07-24T05:18:11.564Z,25.21
2018-07-24T05:19:11.571Z,25.16
2018-07-24T05:20:11.648Z,25.22
2018-07-24T05:21:11.468Z,25.26
2018-07-24T05:22:11.494Z,25.21
2018-07-24T05:23:11.686Z,25.18
2018-07-24T05:24:11.369Z,25.22
2018-07-24T05:25:11.617Z,25.25
2018-07-24T05:26:11.551Z,25.21
2018-07-24T05:27:11.589Z,25.21
2018-07-24T05:28:11.549Z,25.19
2018-07-24T05:29:11.640Z,25.11
2018-07-24T05:30:11.648Z,25.25
2018-07-24T05:31:11.620Z,25.15
2018-07-24T05:32:11.465Z,25.18
2018-07-24T05:33:11.710Z,25.24
2018-07-24T05:34:11.716Z,25.19
2018-07-24T05:35:11.539Z,25.15
2018-07-24T05:36:11.527Z,25.19
2018-07-24T05:37:11.559Z,25.25
2018-07-24T05:38:11.570Z,25.14
2018-07-24T05:39:11.512Z,25.29
2018-07-24T05:40:11.645Z,25.21
2018-07-24T05:45:28.104Z,25.18
2018-07-24T05:45:40.523Z,25.21
2018-07-24T05:46:40.496Z,25.22
2018-07-24T05:47:40.642Z,25.21
2018-07-24T05:48:40.644Z,25.19
2018-07-24T05:49:40.604Z,25.18
2018-07-24T05:50:40.624Z,25.16
2018-07-24T05:51:40.514Z,25.14
2018-07-24T05:52:40.629Z,25.22
2018-07-24T05:53:40.478Z,25.18
2018-07-24T05:54:40.513Z,25.21
2018-07-24T05:55:40.547Z,25.19
2018-07-24T05:56:40.565Z,25.19
2018-07-24T05:57:40.677Z,25.15
2018-07-24T05:58:40.531Z,25.16
2018-07-24T05:59:40.486Z,25.24
2018-07-24T06:00:40.629Z,25.25
2018-07-24T06:01:40.698Z,25.21
2018-07-24T06:02:40.570Z,25.18
2018-07-24T06:03:40.536Z,25.25
2018-07-24T06:04:40.623Z,25.18
2018-07-24T06:05:40.649Z,25.24
2018-07-24T06:06:40.516Z,25.19
2018-07-24T06:07:40.610Z,25.21
2018-07-24T06:08:40.509Z,25.18
2018-07-24T06:09:40.673Z,25.26
2018-07-24T06:10:40.511Z,25.19
2018-07-24T06:11:40.557Z,25.25
2018-07-24T06:12:40.671Z,25.25
2018-07-24T06:13:40.581Z,25.19
2018-07-24T06:14:40.569Z,25.3
2018-07-24T06:15:40.611Z,25.26
2018-07-24T06:16:40.648Z,25.25
2018-07-24T06:17:40.698Z,25.22
2018-07-24T06:18:40.630Z,25.21
2018-07-24T06:19:40.638Z,25.22
2018-07-24T06:20:40.609Z,25.25
2018-07-24T06:21:40.628Z,25.22
2018-07-24T06:22:40.590Z,25.18
2018-07-24T06:23:40.680Z,25.24
2018-07-24T06:24:40.498Z,25.21
2018-07-24T06:25:40.539Z,25.26
2018-07-24T06:26:40.629Z,25.3
2018-07-24T06:27:40.553Z,25.22
2018-07-24T06:28:41.553Z,25.22
2018-07-24T06:29:40.767Z,25.26
2018-07-24T06:30:40.646Z,25.22
2018-07-24T06:31:40.641Z,25.19
2018-07-24T06:32:40.588Z,25.29
2018-07-24T06:33:40.694Z,25.19
2018-07-24T06:34:40.564Z,25.22
2018-07-24T06:35:40.589Z,25.22
2018-07-24T06:36:40.559Z,25.18
2018-07-24T06:37:40.521Z,25.22
2018-07-24T06:38:40.530Z,25.24
2018-07-24T06:39:40.757Z,25.21
2018-07-24T06:40:40.574Z,25.25
2018-07-24T06:41:40.562Z,25.29
2018-07-24T06:42:40.594Z,25.24
2018-07-24T06:44:15.475Z,25.25
2018-07-24T06:44:40.692Z,25.3
2018-07-24T06:45:40.635Z,25.25
2018-07-24T06:46:40.593Z,25.22
2018-07-24T06:47:40.549Z,25.26
2018-07-24T06:48:40.596Z,25.29
2018-07-24T06:49:40.645Z,25.25
2018-07-24T06:50:40.669Z,25.29
2018-07-24T06:51:40.829Z,25.29
2018-07-24T06:52:40.580Z,25.3
2018-07-24T06:53:40.730Z,25.26
2018-07-24T06:54:40.621Z,25.25
2018-07-24T06:55:40.632Z,25.24
2018-07-24T06:56:40.824Z,25.18
2018-07-24T06:57:42.394Z,25.24
2018-07-24T06:58:40.691Z,25.29
2018-07-24T06:59:40.634Z,25.24
2018-07-24T07:00:40.606Z,25.16
2018-07-24T07:01:40.664Z,25.26
2018-07-24T07:02:40.616Z,25.22
2018-07-24T07:03:40.679Z,25.25
2018-07-24T07:04:40.596Z,25.3
2018-07-24T07:05:40.713Z,25.22
2018-07-24T07:06:41.625Z,25.24
2018-07-24T07:07:40.688Z,25.29
2018-07-24T07:08:40.695Z,25.29
2018-07-24T07:13:59.044Z,25.21
2018-07-24T07:14:11.443Z,25.24
2018-07-24T07:15:11.510Z,25.3
2018-07-24T07:16:11.504Z,25.29
2018-07-24T07:17:11.568Z,25.29
2018-07-24T07:18:11.542Z,25.29
2018-07-24T07:19:11.478Z,25.26
2018-07-24T07:20:11.647Z,25.15
2018-07-24T07:21:11.486Z,25.18
2018-07-24T07:22:11.491Z,25.29
2018-07-24T07:23:11.539Z,25.21
2018-07-24T07:24:11.537Z,25.25
2018-07-24T07:25:11.496Z,25.29
2018-07-24T07:26:11.554Z,25.3
2018-07-24T07:27:11.500Z,25.3
2018-07-24T07:28:12.189Z,25.29
2018-07-24T07:29:11.625Z,25.31
2018-07-24T07:30:11.544Z,25.25
2018-07-24T07:31:11.546Z,25.25
2018-07-24T07:32:11.656Z,25.29
2018-07-24T07:33:11.487Z,25.31
2018-07-24T07:34:11.523Z,25.21
2018-07-24T07:35:11.575Z,25.22
2018-07-24T07:36:11.518Z,25.31
2018-07-24T07:37:11.487Z,25.26
2018-07-24T07:38:11.465Z,25.24
2018-07-24T07:39:11.731Z,25.29
2018-07-24T07:40:11.602Z,25.25
2018-07-24T07:41:11.483Z,25.22
2018-07-24T07:42:11.485Z,25.24
2018-07-24T07:43:11.465Z,25.22
2018-07-24T07:44:11.596Z,25.26
2018-07-24T07:45:11.608Z,25.25
2018-07-24T07:46:11.567Z,25.24
2018-07-24T07:48:11.525Z,25.25
2018-07-24T07:49:11.543Z,25.22
2018-07-24T07:50:11.611Z,25.29
2018-07-24T07:51:11.536Z,25.24
2018-07-24T07:52:11.544Z,25.3
2018-07-24T07:53:11.595Z,25.29
2018-07-24T07:54:11.603Z,25.3
2018-07-24T07:55:11.589Z,25.24
2018-07-24T07:56:11.599Z,25.29
2018-07-24T07:57:11.485Z,25.33
2018-07-24T07:58:11.624Z,25.25
2018-07-24T07:59:11.510Z,25.31
2018-07-24T08:00:11.643Z,25.25
2018-07-24T08:01:11.948Z,25.22
2018-07-24T08:02:11.473Z,25.29
2018-07-24T08:03:11.631Z,25.24
2018-07-24T08:04:11.622Z,25.24
2018-07-24T08:05:11.601Z,25.26
2018-07-24T08:06:11.604Z,25.29
2018-07-24T08:07:11.853Z,25.26
2018-07-24T08:08:15.512Z,25.26
2018-07-24T08:09:11.601Z,25.26
2018-07-24T08:10:11.699Z,25.26
2018-07-24T08:11:11.613Z,25.29
2018-07-24T08:12:11.638Z,25.26
2018-07-24T08:13:11.692Z,25.25
2018-07-24T08:14:11.711Z,25.33
2018-07-24T08:15:11.631Z,25.3
2018-07-24T08:16:11.608Z,25.24
2018-07-24T08:17:11.628Z,25.3
2018-07-24T08:18:11.859Z,25.31
2018-07-24T08:19:11.769Z,25.16
2018-07-24T08:20:11.704Z,25.33
2018-07-24T08:21:11.713Z,25.31
2018-07-24T08:22:11.705Z,25.3
2018-07-24T08:23:11.611Z,25.3
2018-07-24T08:24:11.704Z,25.31
2018-07-24T08:25:11.589Z,25.31
2018-07-24T08:26:11.631Z,25.21
2018-07-24T08:27:11.675Z,25.29
2018-07-24T08:28:11.679Z,25.24
2018-07-24T08:29:11.673Z,25.33
2018-07-24T08:30:11.634Z,25.29
2018-07-24T08:31:11.572Z,25.25
2018-07-24T08:32:11.700Z,25.19
2018-07-24T08:33:12.101Z,25.26
2018-07-24T08:34:11.688Z,25.3
2018-07-24T08:35:11.646Z,25.22
2018-07-24T08:36:11.700Z,25.26
2018-07-24T08:37:12.214Z,25.26
2018-07-24T08:38:11.553Z,25.26
2018-07-24T08:39:11.880Z,25.19
2018-07-24T08:40:11.767Z,25.26
2018-07-24T08:41:11.748Z,25.3
2018-07-24T08:42:11.640Z,25.24
2018-07-24T08:43:11.609Z,25.18
2018-07-24T08:44:11.591Z,25.25
2018-07-24T08:45:11.690Z,25.25
2018-07-24T08:46:11.660Z,25.3
2018-07-24T08:47:11.649Z,25.24
2018-07-24T08:48:11.720Z,25.36
2018-07-24T08:49:11.911Z,25.29
2018-07-24T08:50:11.665Z,25.25
2018-07-24T08:51:11.607Z,25.25
2018-07-24T08:52:11.593Z,25.26
2018-07-24T08:53:12.136Z,25.25
2018-07-24T08:54:11.940Z,25.3
2018-07-24T08:55:12.010Z,25.21
2018-07-24T08:56:11.697Z,25.25
2018-07-24T08:57:11.626Z,25.26
2018-07-24T08:58:11.651Z,25.29
2018-07-24T08:59:11.680Z,25.25
2018-07-24T09:00:11.608Z,25.19
2018-07-24T09:01:11.661Z,25.22
2018-07-24T09:02:11.794Z,25.34
2018-07-24T09:03:11.874Z,25.26
2018-07-24T09:04:11.820Z,25.34
2018-07-24T09:05:11.995Z,25.25
2018-07-24T09:06:11.656Z,25.36
2018-07-24T09:07:11.675Z,25.26
2018-07-24T09:08:11.741Z,25.25
2018-07-24T09:09:11.719Z,25.31
2018-07-24T09:10:11.792Z,25.31
2018-07-24T09:11:11.657Z,25.21
2018-07-24T09:12:11.718Z,25.33
2018-07-24T09:13:11.843Z,25.34
2018-07-24T09:14:11.714Z,25.3
2018-07-24T09:15:11.830Z,25.26
2018-07-24T09:16:11.825Z,25.25
2018-07-24T09:17:11.768Z,25.26
2018-07-24T09:18:11.811Z,25.25
2018-07-24T09:19:11.772Z,25.25
2018-07-24T09:20:11.730Z,25.29
2018-07-24T09:21:11.719Z,25.3
2018-07-24T09:22:11.791Z,25.3
2018-07-24T09:23:11.827Z,25.26
2018-07-24T09:24:11.841Z,25.3
2018-07-24T09:25:11.881Z,25.33
2018-07-24T09:26:11.753Z,25.31
2018-07-24T09:30:41.946Z,25.37
2018-07-24T09:31:41.899Z,25.3
2018-07-24T09:32:41.869Z,25.29
2018-07-24T09:33:42.000Z,25.31
2018-07-24T09:34:41.804Z,25.29
2018-07-24T09:35:41.875Z,25.31
2018-07-24T09:36:41.950Z,25.25
2018-07-24T09:37:41.937Z,25.3
2018-07-24T09:38:41.846Z,25.36
2018-07-24T09:39:41.899Z,25.41
2018-07-24T09:40:41.945Z,25.31
2018-07-24T09:41:42.015Z,25.34
2018-07-24T09:42:41.882Z,25.39
2018-07-24T09:43:41.862Z,25.29
2018-07-24T09:44:41.920Z,25.26
2018-07-24T09:45:41.890Z,25.34
2018-07-24T09:46:41.886Z,25.36
2018-07-24T09:47:41.956Z,25.39
2018-07-24T09:48:41.811Z,25.39
2018-07-24T09:49:41.836Z,25.26
2018-07-24T09:50:41.938Z,25.25
2018-07-24T09:51:41.903Z,25.31
2018-07-24T09:52:41.960Z,25.33
2018-07-24T09:53:42.410Z,25.24
2018-07-24T09:54:41.858Z,25.31
2018-07-24T09:55:42.805Z,25.36
2018-07-24T09:56:41.951Z,25.34
2018-07-24T09:57:41.885Z,25.34
2018-07-24T09:58:41.866Z,25.36
2018-07-24T09:59:41.900Z,25.31
2018-07-24T10:00:41.901Z,25.39
2018-07-24T10:01:41.953Z,25.31
2018-07-24T10:02:41.891Z,25.3
2018-07-24T10:03:41.860Z,25.26
2018-07-24T10:04:41.945Z,25.33
2018-07-24T10:05:41.942Z,25.34
2018-07-24T10:06:41.888Z,25.4
2018-07-24T10:07:41.827Z,25.31
2018-07-24T10:08:41.960Z,25.24
2018-07-24T10:09:41.977Z,25.29
2018-07-24T10:10:41.970Z,25.34
2018-07-24T10:11:41.978Z,25.37
2018-07-24T10:12:42.123Z,25.3
2018-07-24T10:13:42.003Z,25.34
2018-07-24T10:14:41.904Z,25.37
2018-07-24T10:15:41.870Z,25.37
2018-07-24T10:16:42.058Z,25.3
2018-07-24T10:17:41.899Z,25.37
2018-07-24T10:18:41.985Z,25.3
2018-07-24T10:19:42.015Z,25.37
2018-07-24T10:20:41.968Z,25.3
2018-07-24T10:21:41.872Z,25.34
2018-07-24T10:22:41.910Z,25.34
2018-07-24T10:23:41.881Z,25.26
2018-07-24T10:24:41.966Z,25.34
2018-07-24T10:25:41.841Z,25.31
2018-07-24T10:26:42.062Z,25.37
2018-07-24T10:27:42.012Z,25.31
2018-07-24T10:28:41.999Z,25.39
2018-07-24T10:29:42.030Z,25.43
2018-07-24T10:34:58.872Z,25.33
2018-07-24T10:35:11.453Z,25.41
2018-07-24T10:36:11.323Z,25.33
2018-07-24T10:37:11.458Z,25.34
2018-07-24T10:38:11.340Z,25.31
2018-07-24T10:39:11.387Z,25.43
2018-07-24T10:40:11.415Z,25.31
2018-07-24T10:41:11.355Z,25.36
2018-07-24T10:42:11.394Z,25.33
2018-07-24T10:43:11.510Z,25.37
2018-07-24T10:44:11.335Z,25.33
2018-07-24T10:45:11.334Z,25.3
2018-07-24T10:46:11.334Z,25.31
2018-07-24T10:47:11.465Z,25.4
2018-07-24T10:48:11.476Z,25.26
2018-07-24T10:49:11.410Z,25.36
2018-07-24T10:50:11.401Z,25.41
2018-07-24T10:51:11.458Z,25.26
2018-07-24T10:52:11.360Z,25.36
2018-07-24T10:53:11.303Z,25.26
2018-07-24T10:54:11.329Z,25.31
2018-07-24T10:55:11.340Z,25.37
2018-07-24T10:56:11.347Z,25.31
2018-07-24T10:57:11.378Z,25.34
2018-07-24T10:58:11.432Z,25.26
2018-07-24T10:59:11.319Z,25.26
2018-07-24T11:00:11.522Z,25.33
2018-07-24T11:01:11.457Z,25.31
2018-07-24T11:02:11.468Z,25.33
2018-07-24T11:03:11.442Z,25.37
2018-07-24T11:04:11.480Z,25.37
2018-07-24T11:05:11.467Z,25.46
2018-07-24T11:06:11.346Z,25.3
2018-07-24T11:07:11.350Z,25.33
2018-07-24T11:08:11.331Z,25.26
2018-07-24T11:09:11.473Z,25.31
2018-07-24T11:10:11.679Z,25.26
2018-07-24T11:11:11.517Z,25.41
2018-07-24T11:12:11.454Z,25.26
2018-07-24T11:13:11.340Z,25.4
2018-07-24T11:14:11.365Z,25.33
2018-07-24T11:15:11.414Z,25.36
2018-07-24T11:16:11.373Z,25.33
2018-07-24T11:17:12.075Z,25.31
2018-07-24T11:18:11.367Z,25.26
2018-07-24T11:19:11.423Z,25.26
2018-07-24T11:20:11.567Z,25.16
2018-07-24T11:21:11.385Z,25.33
2018-07-24T11:22:11.648Z,25.36
2018-07-24T11:27:29.616Z,25.33
2018-07-24T11:27:43.495Z,25.44
2018-07-24T11:28:43.514Z,25.34
2018-07-24T11:29:58.336Z,25.43
2018-07-24T11:30:43.561Z,25.31
2018-07-24T11:31:43.345Z,25.3
2018-07-24T11:32:43.409Z,25.3
2018-07-24T11:33:43.411Z,25.3
2018-07-24T11:34:43.490Z,25.44
2018-07-24T11:35:43.772Z,25.41
2018-07-24T11:36:43.534Z,25.29
2018-07-24T11:37:43.402Z,25.43
2018-07-24T11:38:43.659Z,25.36
2018-07-24T11:39:43.445Z,25.26
2018-07-24T11:40:43.455Z,25.4
2018-07-24T11:41:43.574Z,25.31
2018-07-24T11:42:43.540Z,25.33
2018-07-24T11:43:43.541Z,25.37
2018-07-24T11:44:43.488Z,25.37
2018-07-24T11:45:43.522Z,25.33
2018-07-24T11:46:43.517Z,25.3
2018-07-24T11:47:43.573Z,25.29
2018-07-24T11:48:43.511Z,25.41
2018-07-24T11:49:43.450Z,25.34
2018-07-24T11:50:43.382Z,25.37
2018-07-24T11:51:43.497Z,25.39
2018-07-24T11:52:43.484Z,25.34
2018-07-24T11:53:43.533Z,25.43
2018-07-24T11:54:43.478Z,25.33
2018-07-24T11:55:43.532Z,25.37
2018-07-24T11:56:43.504Z,25.36
2018-07-24T11:57:43.625Z,25.43
2018-07-24T11:58:43.603Z,25.4
2018-07-24T11:59:43.476Z,25.48
2018-07-24T12:00:43.468Z,25.36
2018-07-24T12:01:43.598Z,25.43
2018-07-24T12:02:43.420Z,25.39
2018-07-24T12:03:43.583Z,25.44
2018-07-24T12:06:50.991Z,25.37
2018-07-24T12:07:03.416Z,25.44
2018-07-24T12:08:03.534Z,25.43
2018-07-24T12:09:03.370Z,25.33
2018-07-24T12:10:03.402Z,25.37
2018-07-24T12:11:03.535Z,25.41
2018-07-24T12:12:03.407Z,25.41
2018-07-24T12:13:03.486Z,25.44
2018-07-24T12:14:03.502Z,25.44
2018-07-24T12:15:03.650Z,25.37
2018-07-24T12:16:03.517Z,25.49
2018-07-24T12:17:03.410Z,25.33
2018-07-24T12:18:03.428Z,25.46
2018-07-24T12:19:03.497Z,25.29
2018-07-24T12:20:03.503Z,25.41
2018-07-24T12:21:03.498Z,25.3
2018-07-24T12:22:03.686Z,25.39
2018-07-24T12:23:03.459Z,25.4
2018-07-24T12:24:03.413Z,25.44
2018-07-24T12:25:03.427Z,25.4
2018-07-24T12:26:03.399Z,25.4
2018-07-24T12:27:03.550Z,25.39
2018-07-24T12:28:03.449Z,25.41
2018-07-24T12:29:03.428Z,25.43
2018-07-24T12:30:03.533Z,25.46
2018-07-24T12:31:03.491Z,25.48
2018-07-24T12:32:03.610Z,25.44
2018-07-24T12:33:03.469Z,25.41
2018-07-24T12:34:03.484Z,25.4
2018-07-24T12:35:03.543Z,25.41
2018-07-24T12:36:03.664Z,25.41
2018-07-24T12:37:03.502Z,25.49
2018-07-24T12:38:03.530Z,25.44
2018-07-24T12:39:03.483Z,25.41
2018-07-24T12:40:03.530Z,25.43
2018-07-24T12:41:03.557Z,25.46
2018-07-24T12:42:38.312Z,25.49
2018-07-24T12:43:03.606Z,25.46
2018-07-24T12:44:03.553Z,25.39
2018-07-24T12:45:03.548Z,25.4
2018-07-24T12:46:03.605Z,25.43
2018-07-24T12:47:03.499Z,25.39
2018-07-24T12:48:03.535Z,25.44
2018-07-24T12:49:03.478Z,25.4
2018-07-24T12:50:03.490Z,25.44
2018-07-24T12:51:03.456Z,25.44
2018-07-24T12:52:03.524Z,25.44
2018-07-24T12:53:03.566Z,25.44
2018-07-24T12:54:03.493Z,25.44
2018-07-24T12:55:03.499Z,25.46
2018-07-24T12:56:03.600Z,25.41
2018-07-24T12:57:03.607Z,25.51
2018-07-24T12:58:03.783Z,25.44
2018-07-24T12:59:03.732Z,25.52
2018-07-24T13:00:03.536Z,25.41
2018-07-24T13:01:03.555Z,25.41
2018-07-24T13:02:03.595Z,25.44
2018-07-24T13:03:03.656Z,25.41
2018-07-24T13:04:03.569Z,25.41
2018-07-24T13:05:03.594Z,25.41
2018-07-24T13:06:03.517Z,25.39
2018-07-24T13:07:03.567Z,25.48
2018-07-24T13:08:03.704Z,25.46
2018-07-24T13:09:03.532Z,25.44
2018-07-24T13:10:03.877Z,25.46
2018-07-24T13:11:03.734Z,25.43
2018-07-24T13:12:03.601Z,25.43
2018-07-24T13:13:03.507Z,25.41
2018-07-24T13:14:03.652Z,25.49
2018-07-24T13:15:03.647Z,25.4
2018-07-24T13:16:03.623Z,25.49
2018-07-24T13:17:07.349Z,25.39
2018-07-24T13:18:03.634Z,25.44
2018-07-24T13:19:03.875Z,25.41
2018-07-24T13:20:03.658Z,25.46
2018-07-24T13:21:03.633Z,25.48